Time;durP1;ratioP1;P1;durP2;ratioP2;P2;SDS_P1;SDS_P2;PMS_P1;PMS_P2;Temp;Humidity;BMP_temperature;BMP_pressure;BME280_temperature;BME280_humidity;BME280_pressure;Samples;Min_cycle;Max_cycle;Signal;HPM_P1;HPM_P2
2024/03/13 00:01:53;;;;;;;20.48;10.98;;;;;;;5.59;100.00;101501.75;6161760;23;20019;-81
2024/03/13 00:04:19;;;;;;;21.08;11.02;;;;;;;5.47;100.00;101499.78;6173531;23;20017;-70
2024/03/13 00:06:46;;;;;;;;;;;;;;;5.44;100.00;101494.09;6174048;23;20024;-70
2024/03/13 00:09:12;;;;;;;24.60;12.20;;;;;;;5.39;100.00;101492.09;6148536;23;19908;-69
2024/03/13 00:11:40;;;;;;;31.38;14.40;;;;;;;5.44;100.00;101499.41;6147334;23;20067;-70
2024/03/13 00:14:08;;;;;;;32.15;15.27;;;;;;;5.40;100.00;101498.22;6171480;23;20391;-70
2024/03/13 00:16:34;;;;;;;30.30;14.73;;;;;;;5.37;100.00;101498.66;6171973;23;20107;-70
2024/03/13 00:18:59;;;;;;;28.67;14.35;;;;;;;5.34;100.00;101499.06;6148510;23;20086;-69
2024/03/13 00:21:35;;;;;;;29.42;14.95;;;;;;;5.32;100.00;101501.13;6171703;23;20017;-70
2024/03/13 00:24:02;;;;;;;31.08;14.77;;;;;;;5.29;100.00;101512.22;6173996;23;20016;-69
2024/03/13 00:26:29;;;;;;;29.63;15.57;;;;;;;5.26;100.00;101512.63;6172510;23;20042;-68
2024/03/13 00:28:54;;;;;;;26.45;13.07;;;;;;;5.23;100.00;101507.75;6124119;23;20023;-69
2024/03/13 00:31:20;;;;;;;32.20;14.07;;;;;;;5.22;100.00;101516.75;6174090;23;20426;-69
2024/03/13 00:33:46;;;;;;;30.67;15.10;;;;;;;5.21;100.00;101515.91;6146663;23;20749;-70
2024/03/13 00:36:12;;;;;;;32.60;15.77;;;;;;;5.21;100.00;101515.91;6173186;23;20819;-67
2024/03/13 00:38:37;;;;;;;32.13;14.55;;;;;;;5.20;100.00;101520.41;6173655;23;20051;-71
2024/03/13 00:41:03;;;;;;;31.45;13.85;;;;;;;5.18;100.00;101511.84;6147927;23;20013;-69
2024/03/13 00:43:30;;;;;;;27.45;14.02;;;;;;;5.16;100.00;101519.22;6171030;23;20013;-69
2024/03/13 00:45:56;;;;;;;33.08;14.43;;;;;;;5.15;100.00;101514.16;6172780;23;20013;-69
2024/03/13 00:48:22;;;;;;;26.58;13.07;;;;;;;5.13;100.00;101513.53;6173220;23;20045;-69
2024/03/13 00:50:48;;;;;;;27.63;13.55;;;;;;;5.10;100.00;101514.78;6172902;23;20099;-69
2024/03/13 00:53:16;;;;;;;32.40;16.20;;;;;;;5.07;100.00;101511.72;6170478;23;20005;-70
2024/03/13 00:55:42;;;;;;;28.15;14.23;;;;;;;5.04;100.00;101512.97;6172104;23;20100;-71
2024/03/13 00:58:08;;;;;;;29.27;13.80;;;;;;;5.00;100.00;101516.25;6122364;23;20047;-71
2024/03/13 01:00:38;;;;;;;29.40;15.65;;;;;;;4.98;100.00;101515.66;6171939;23;20029;-69
2024/03/13 01:03:05;;;;;;;25.48;13.25;;;;;;;4.95;100.00;101502.84;6171533;23;20009;-70
2024/03/13 01:05:31;;;;;;;25.05;13.48;;;;;;;4.88;100.00;101508.19;6171802;23;20032;-70
2024/03/13 01:07:57;;;;;;;20.60;11.32;;;;;;;4.84;100.00;101504.31;6171937;23;20024;-70
2024/03/13 01:10:26;;;;;;;22.77;11.68;;;;;;;4.77;100.00;101507.00;6147142;23;20016;-70
2024/03/13 01:12:54;;;;;;;24.73;12.27;;;;;;;4.69;100.00;101501.13;6171225;23;20020;-69
2024/03/13 01:15:20;;;;;;;21.67;12.23;;;;;;;4.65;100.00;101500.72;6146354;23;20147;-69
2024/03/13 01:17:46;;;;;;;23.65;10.85;;;;;;;4.61;100.00;101499.53;6173709;23;20086;-69
2024/03/13 01:20:17;;;;;;;22.38;11.30;;;;;;;4.55;100.00;101500.38;6171999;23;20013;-68
2024/03/13 01:22:47;;;;;;;20.20;11.23;;;;;;;4.50;100.00;101485.09;6172390;23;20017;-69
2024/03/13 01:25:14;;;;;;;20.15;11.23;;;;;;;4.47;100.00;101485.53;6145512;23;20023;-71
2024/03/13 01:27:42;;;;;;;18.55;10.63;;;;;;;4.42;100.00;101481.88;6171416;23;20009;-70
2024/03/13 01:30:13;;;;;;;20.73;11.15;;;;;;;4.36;100.00;101475.56;6172060;23;20009;-70
2024/03/13 01:32:43;;;;;;;17.65;10.20;;;;;;;4.33;100.00;101486.56;6142915;23;20024;-71
2024/03/13 01:35:10;;;;;;;22.50;12.02;;;;;;;4.30;100.00;101482.53;6146533;23;20013;-70
2024/03/13 01:40:25;;;;;;;;;;;;;;;4.13;100.00;101480.53;6173666;23;20466;-71
2024/03/13 01:57:12;;;;;;;16.27;8.57;;;;;;;3.81;100.00;101445.97;6171058;23;20100;-70
2024/03/13 01:59:49;;;;;;;17.05;9.85;;;;;;;3.76;100.00;101448.41;6146926;23;20048;-69
2024/03/13 02:02:24;;;;;;;22.80;10.32;;;;;;;3.75;100.00;101444.16;6171015;23;20067;-70
2024/03/13 02:04:51;;;;;;;18.77;9.48;;;;;;;3.75;100.00;101449.44;6171535;23;20009;-70
2024/03/13 02:07:18;;;;;;;19.05;10.07;;;;;;;3.69;100.00;101444.97;6172525;23;20451;-69
2024/03/13 02:09:45;;;;;;;21.73;10.95;;;;;;;3.64;100.00;101450.06;6172668;23;20427;-69
2024/03/13 02:12:11;;;;;;;21.33;12.13;;;;;;;3.64;100.00;101455.38;6173709;23;20314;-70
2024/03/13 02:14:37;;;;;;;22.08;12.00;;;;;;;3.64;100.00;101453.53;6170370;23;20021;-70
2024/03/13 02:17:07;;;;;;;21.23;11.20;;;;;;;3.53;100.00;101449.69;6170531;23;20016;-70
2024/03/13 02:19:36;;;;;;;22.25;11.32;;;;;;;3.50;100.00;101449.28;6172211;23;20473;-69
2024/03/13 02:22:04;;;;;;;20.80;11.50;;;;;;;3.45;100.00;101449.88;6172515;23;20119;-70
2024/03/13 02:24:31;;;;;;;24.60;12.48;;;;;;;3.43;100.00;101451.94;6170319;23;20025;-70
2024/03/13 02:26:56;;;;;;;;;;;;;;;3.38;100.00;101446.41;6172371;23;20013;-68
2024/03/13 02:29:22;;;;;;;19.13;10.20;;;;;;;3.36;100.00;101451.13;6144531;23;19912;-69
2024/03/13 02:31:48;;;;;;;18.90;10.13;;;;;;;3.36;100.00;101459.06;6145398;23;20013;-70
2024/03/13 02:34:16;;;;;;;18.35;10.43;;;;;;;3.34;100.00;101461.09;6120986;23;20013;-69
2024/03/13 02:36:42;;;;;;;22.65;12.30;;;;;;;3.28;100.00;101462.72;6170465;23;20017;-71
2024/03/13 02:39:08;;;;;;;29.42;14.55;;;;;;;3.30;100.00;101449.28;6171575;23;20017;-71
2024/03/13 02:41:34;;;;;;;31.85;14.60;;;;;;;3.35;100.00;101452.13;6171003;23;20013;-71
2024/03/13 02:44:00;;;;;;;26.08;14.75;;;;;;;3.34;100.00;101455.81;6146127;23;20092;-70
2024/03/13 02:46:28;;;;;;;26.00;13.73;;;;;;;3.33;100.00;101458.66;6171262;23;20025;-71
2024/03/13 02:48:54;;;;;;;27.30;12.70;;;;;;;3.31;100.00;101455.38;6172786;23;20016;-72
2024/03/13 02:51:20;;;;;;;34.30;15.38;;;;;;;3.34;100.00;101449.72;6146327;23;20023;-69
2024/03/13 02:53:46;;;;;;;43.88;15.90;;;;;;;3.34;100.00;101447.88;6121684;23;20016;-69
2024/03/13 02:56:12;;;;;;;79.13;15.55;;;;;;;3.35;100.00;101441.56;6172837;23;20013;-68
2024/03/13 02:58:38;;;;;;;52.20;15.48;;;;;;;3.35;100.00;101443.38;6120707;23;20066;-70
2024/03/13 03:01:03;;;;;;;32.03;14.23;;;;;;;3.33;100.00;101437.50;6146421;23;20354;-69
2024/03/13 03:03:30;;;;;;;50.03;14.13;;;;;;;3.29;100.00;101426.47;6170881;23;20013;-70
2024/03/13 03:06:01;;;;;;;;;;;;;;;3.25;100.00;101422.59;6147327;23;20025;-70
2024/03/13 03:08:28;;;;;;;28.45;12.70;;;;;;;3.23;100.00;101427.28;6170444;23;19986;-69
2024/03/13 03:10:53;;;;;;;22.38;12.30;;;;;;;3.20;100.00;101419.78;6147814;23;20083;-69
2024/03/13 03:13:19;;;;;;;24.70;12.55;;;;;;;3.18;100.00;101430.53;6145854;23;20095;-69
2024/03/13 03:15:48;;;;;;;24.80;13.10;;;;;;;3.15;100.00;101432.78;6148580;23;20104;-69
2024/03/13 03:18:13;;;;;;;28.83;15.10;;;;;;;3.12;100.00;101447.25;6123786;23;20023;-70
2024/03/13 03:20:41;;;;;;;33.53;16.45;;;;;;;3.19;100.00;101436.69;6175292;23;20009;-69
2024/03/13 03:23:08;;;;;;;37.83;15.65;;;;;;;3.25;100.00;101430.53;6123323;23;20344;-70
2024/03/13 03:25:34;;;;;;;44.92;16.80;;;;;;;3.25;100.00;101431.38;6149006;23;20350;-68
2024/03/13 03:28:00;;;;;;;38.97;16.92;;;;;;;3.28;100.00;101424.84;6174007;23;20041;-69
2024/03/13 03:30:25;;;;;;;53.80;16.20;;;;;;;3.31;100.00;101416.50;6174173;23;20017;-70
2024/03/13 03:32:53;;;;;;;36.75;14.85;;;;;;;3.31;100.00;101415.69;6173329;23;20016;-69
2024/03/13 03:35:19;;;;;;;38.45;15.20;;;;;;;3.29;100.00;101415.88;6174904;23;20024;-69
2024/03/13 03:37:45;;;;;;;35.90;14.52;;;;;;;3.29;100.00;101415.88;6173828;23;20021;-70
2024/03/13 03:40:13;;;;;;;55.78;14.43;;;;;;;3.27;100.00;101410.00;6149116;23;20023;-69
2024/03/13 03:42:39;;;;;;;49.75;13.75;;;;;;;3.16;100.00;101405.31;6123874;23;20426;-69
2024/03/13 03:45:05;;;;;;;36.22;12.90;;;;;;;3.17;100.00;101410.38;6176068;23;20020;-69
2024/03/13 03:47:30;;;;;;;35.72;13.20;;;;;;;3.12;100.00;101401.47;6175435;23;20019;-69
2024/03/13 03:49:56;;;;;;;59.88;14.00;;;;;;;3.10;100.00;101412.22;6151001;23;20029;-69
2024/03/13 03:52:22;;;;;;;31.10;11.88;;;;;;;3.10;100.00;101408.75;6149519;23;20021;-69
2024/03/13 03:54:48;;;;;;;25.83;12.65;;;;;;;3.09;100.00;101418.53;6149978;23;20017;-69
2024/03/13 03:57:14;;;;;;;28.90;12.98;;;;;;;3.07;100.00;101425.88;6174111;23;20063;-71
2024/03/13 03:59:40;;;;;;;23.98;11.70;;;;;;;3.09;100.00;101425.66;6176906;23;20043;-70
2024/03/13 04:02:05;;;;;;;26.90;13.30;;;;;;;3.11;100.00;101416.50;6174899;23;20016;-70
2024/03/13 04:04:32;;;;;;;32.63;14.32;;;;;;;3.13;100.00;101424.25;6202257;23;20309;-69
2024/03/13 04:06:58;;;;;;;26.70;13.88;;;;;;;3.13;100.00;101416.31;6154444;23;20052;-69
2024/03/13 04:09:24;;;;;;;28.80;13.43;;;;;;;3.12;100.00;101430.56;6155851;23;20016;-70
2024/03/13 04:11:52;;;;;;;24.92;11.55;;;;;;;3.11;100.00;101444.78;6154343;23;20821;-70
2024/03/13 04:14:18;;;;;;;28.10;13.88;;;;;;;3.09;100.00;101452.13;6180127;23;20044;-69
2024/03/13 04:16:45;;;;;;;26.98;13.10;;;;;;;3.09;100.00;101446.84;6178976;23;20454;-69
2024/03/13 04:19:11;;;;;;;24.58;11.85;;;;;;;3.08;100.00;101445.22;6205126;23;20048;-70
2024/03/13 04:21:38;;;;;;;24.55;12.45;;;;;;;3.07;100.00;101456.81;6154414;23;20021;-69
2024/03/13 04:24:05;;;;;;;29.33;13.27;;;;;;;3.04;100.00;101460.66;6178866;23;20016;-69
2024/03/13 04:26:32;;;;;;;24.52;13.25;;;;;;;3.04;100.00;101454.56;6205538;23;20051;-69
2024/03/13 04:28:58;;;;;;;30.55;14.30;;;;;;;3.01;100.00;101446.03;6180849;23;20066;-69
2024/03/13 04:31:25;;;;;;;31.17;14.98;;;;;;;2.99;100.00;101445.41;6180085;23;20016;-69
2024/03/13 04:33:51;;;;;;;29.35;13.65;;;;;;;3.00;100.00;101454.97;6154971;23;20035;-69
2024/03/13 04:36:16;;;;;;;28.27;13.75;;;;;;;3.00;100.00;101443.59;6179889;23;20008;-69
2024/03/13 04:38:42;;;;;;;32.75;15.73;;;;;;;3.00;100.00;101454.16;6204823;23;20470;-69
2024/03/13 04:41:11;;;;;;;44.95;14.18;;;;;;;2.96;100.00;101445.00;6154750;23;20016;-68
2024/03/13 04:43:36;;;;;;;39.33;16.90;;;;;;;2.96;100.00;101437.06;6205081;23;20123;-69
2024/03/13 04:46:02;;;;;;;32.63;14.52;;;;;;;2.95;100.00;101446.81;6154605;23;20095;-71
2024/03/13 04:48:28;;;;;;;28.80;13.52;;;;;;;2.94;100.00;101450.50;6205486;23;20016;-69
2024/03/13 04:50:53;;;;;;;32.60;15.13;;;;;;;2.92;100.00;101449.88;6179026;23;20020;-69
2024/03/13 04:53:22;;;;;;;32.67;14.85;;;;;;;2.93;100.00;101443.56;6178032;23;20428;-69
2024/03/13 04:55:49;;;;;;;28.08;13.48;;;;;;;2.90;100.00;101437.84;6178643;23;20031;-69
2024/03/13 04:58:15;;;;;;;33.92;13.80;;;;;;;2.86;100.00;101453.34;6204963;23;20111;-68
2024/03/13 05:00:41;;;;;;;30.00;13.02;;;;;;;2.84;100.00;101449.25;6179441;23;20016;-69
2024/03/13 05:03:07;;;;;;;35.65;14.77;;;;;;;2.78;100.00;101450.88;6178547;23;20070;-69
2024/03/13 05:05:34;;;;;;;32.08;14.27;;;;;;;2.77;100.00;101454.53;6179490;23;20425;-69
2024/03/13 05:08:00;;;;;;;31.75;14.80;;;;;;;2.74;100.00;101458.38;6179579;23;20016;-69
2024/03/13 05:10:29;;;;;;;34.90;15.88;;;;;;;2.73;100.00;101461.25;6179818;23;20034;-68
2024/03/13 05:12:54;;;;;;;34.60;15.85;;;;;;;2.70;100.00;101456.34;6178644;23;20450;-70
2024/03/13 05:15:20;;;;;;;34.70;14.77;;;;;;;2.68;100.00;101461.03;6179149;23;20020;-70
2024/03/13 05:17:49;;;;;;;33.35;14.85;;;;;;;2.66;100.00;101449.84;6202609;23;20009;-71
2024/03/13 05:20:17;;;;;;;28.33;14.05;;;;;;;2.63;100.00;101453.66;6179248;23;20150;-70
2024/03/13 05:22:44;;;;;;;33.20;13.93;;;;;;;2.60;100.00;101453.28;6128055;23;20012;-69
2024/03/13 05:25:17;;;;;;;27.70;13.30;;;;;;;2.55;100.00;101439.81;6205337;23;20019;-70
2024/03/13 05:27:46;;;;;;;31.60;13.65;;;;;;;2.51;100.00;101444.72;6204208;23;20016;-69
2024/03/13 05:30:12;;;;;;;26.40;12.02;;;;;;;2.47;100.00;101435.53;6154458;23;20095;-69
2024/03/13 05:32:38;;;;;;;36.50;12.77;;;;;;;2.43;100.00;101437.75;6204602;23;20533;-68
2024/03/13 05:35:08;;;;;;;33.47;13.32;;;;;;;2.41;100.00;101439.78;6205603;23;20008;-70
2024/03/13 05:37:34;;;;;;;30.05;12.73;;;;;;;2.38;100.00;101440.19;6152677;23;20095;-69
2024/03/13 05:40:12;;;;;;;26.98;12.45;;;;;;;2.37;100.00;101443.00;6179413;23;20024;-69
2024/03/13 05:42:38;;;;;;;29.65;13.50;;;;;;;2.33;100.00;101431.22;6177758;23;20115;-69
2024/03/13 05:45:08;;;;;;;28.95;12.57;;;;;;;2.29;100.00;101438.72;6178975;23;20020;-69
2024/03/13 05:47:34;;;;;;;27.90;13.02;;;;;;;2.26;100.00;101425.91;6126627;23;20016;-71
2024/03/13 05:49:59;;;;;;;29.42;14.00;;;;;;;2.28;100.00;101428.34;6179881;23;20096;-68
2024/03/13 05:52:25;;;;;;;32.05;14.13;;;;;;;2.26;100.00;101427.75;6178589;23;20500;-68
2024/03/13 05:54:51;;;;;;;34.88;12.30;;;;;;;2.26;100.00;101430.38;6177972;23;20013;-69
2024/03/13 05:57:17;;;;;;;31.40;13.02;;;;;;;2.26;100.00;101431.19;6177853;23;20012;-69
2024/03/13 05:59:43;;;;;;;35.45;14.77;;;;;;;2.30;100.00;101432.41;6178065;23;20008;-69
2024/03/13 06:02:08;;;;;;;32.42;14.57;;;;;;;2.31;100.00;101441.19;6205178;23;20325;-69
2024/03/13 06:04:36;;;;;;;32.85;13.48;;;;;;;2.33;100.00;101447.91;6178012;23;20028;-71
2024/03/13 06:07:02;;;;;;;31.02;13.25;;;;;;;2.33;100.00;101453.19;6178358;23;20016;-70
2024/03/13 06:09:28;;;;;;;29.38;13.35;;;;;;;2.34;100.00;101452.16;6154651;23;20074;-70
2024/03/13 06:11:54;;;;;;;31.40;13.18;;;;;;;2.36;100.00;101458.06;6177618;23;20023;-70
2024/03/13 06:14:19;;;;;;;31.77;13.48;;;;;;;2.36;100.00;101446.66;6177285;23;20012;-70
2024/03/13 06:16:45;;;;;;;32.95;14.10;;;;;;;2.41;100.00;101449.53;6176954;23;20779;-71
2024/03/13 06:19:11;;;;;;;33.83;14.90;;;;;;;2.43;100.00;101452.78;6178795;23;20013;-70
2024/03/13 06:21:37;;;;;;;;;;;;;;;2.47;100.00;101454.03;6205215;23;20039;-70
2024/03/13 06:24:05;;;;;;;30.23;14.40;;;;;;;2.52;100.00;101451.63;6176180;23;19946;-70
2024/03/13 06:26:31;;;;;;;35.85;14.70;;;;;;;2.55;100.00;101451.22;6175561;23;20022;-71
2024/03/13 06:31:41;;;;;;;;;;;;;;;2.65;100.00;101451.66;6203953;23;20087;-72
2024/03/13 06:34:10;;;;;;;33.60;13.63;;;;;;;2.69;100.00;101457.34;6152932;23;19938;-71
2024/03/13 06:36:39;;;;;;;34.30;14.07;;;;;;;2.73;100.00;101442.72;6177202;23;20020;-71
2024/03/13 06:39:05;;;;;;;35.83;15.35;;;;;;;2.78;100.00;101440.31;6204811;23;20015;-71
2024/03/13 06:41:31;;;;;;;41.95;15.73;;;;;;;2.87;100.00;101448.84;6204406;23;20015;-70
2024/03/13 06:43:57;;;;;;;38.22;15.60;;;;;;;2.94;100.00;101450.50;6176767;23;20032;-71
2024/03/13 06:46:28;;;;;;;42.83;17.33;;;;;;;2.96;100.00;101443.16;6174956;23;20017;-70
2024/03/13 06:48:54;;;;;;;38.05;16.70;;;;;;;3.04;100.00;101454.56;6177686;23;20013;-71
2024/03/13 06:51:20;;;;;;;42.55;15.95;;;;;;;3.13;100.00;101450.72;6128462;23;20022;-71
2024/03/13 06:53:46;;;;;;;43.08;17.08;;;;;;;3.19;100.00;101453.38;6175832;23;20005;-70
2024/03/13 06:56:12;;;;;;;46.13;17.67;;;;;;;3.27;100.00;101455.00;6152624;23;20017;-70
2024/03/13 06:58:38;;;;;;;42.33;17.40;;;;;;;3.34;100.00;101455.81;6175912;23;20071;-71
2024/03/13 07:01:12;;;;;;;43.97;18.52;;;;;;;3.42;100.00;101462.72;6152959;23;20016;-69
2024/03/13 07:03:42;;;;;;;45.92;19.25;;;;;;;3.47;100.00;101465.59;6151248;23;20028;-69
2024/03/13 07:06:09;;;;;;;41.78;17.27;;;;;;;3.53;100.00;101451.53;6177664;23;20073;-70
2024/03/13 07:08:36;;;;;;;47.78;17.95;;;;;;;3.58;100.00;101462.28;6176656;23;20677;-71
2024/03/13 07:11:04;;;;;;;43.83;17.58;;;;;;;3.66;100.00;101461.25;6178320;23;20091;-69
2024/03/13 07:13:31;;;;;;;43.25;17.35;;;;;;;3.71;100.00;101459.63;6205436;23;20008;-70
2024/03/13 07:15:56;;;;;;;45.15;18.10;;;;;;;3.74;100.00;101459.22;6155578;23;20454;-69
2024/03/13 07:18:22;;;;;;;41.97;16.52;;;;;;;3.83;100.00;101459.81;6178242;23;20528;-69
2024/03/13 07:20:47;;;;;;;46.65;18.70;;;;;;;3.90;100.00;101457.16;6154504;23;20023;-71
2024/03/13 07:23:13;;;;;;;47.15;18.33;;;;;;;3.89;100.00;101459.00;6178204;23;20019;-69
2024/03/13 07:25:39;;;;;;;47.80;18.38;;;;;;;3.89;100.00;101455.53;6205481;23;20012;-71
2024/03/13 07:28:08;;;;;;;41.85;16.45;;;;;;;3.99;100.00;101466.50;6204281;23;20088;-70
2024/03/13 07:30:34;;;;;;;40.58;16.75;;;;;;;4.05;100.00;101460.38;6179701;23;20013;-69
2024/03/13 07:33:00;;;;;;;;;;;;;;;4.12;100.00;101458.50;6178263;23;20062;-69
2024/03/13 07:35:26;;;;;;;39.70;17.20;;;;;;;4.21;100.00;101451.16;6179015;23;19950;-70
2024/03/13 07:37:51;;;;;;;41.28;17.00;;;;;;;4.27;100.00;101458.28;6203071;23;20016;-70
2024/03/13 07:40:20;;;;;;;40.80;17.35;;;;;;;4.37;100.00;101456.78;6178602;23;20020;-70
2024/03/13 07:42:47;;;;;;;42.38;18.00;;;;;;;4.40;100.00;101455.53;6152924;23;20124;-70
2024/03/13 07:45:16;;;;;;;;;;;;;;;4.51;100.00;101464.69;6180696;23;20012;-70
2024/03/13 07:47:44;;;;;;;38.95;15.98;;;;;;;4.57;100.00;101461.19;6179821;23;19912;-69
2024/03/13 07:50:11;;;;;;;41.72;17.58;;;;;;;4.62;100.00;101459.53;6180486;23;20067;-70
2024/03/13 07:52:37;;;;;;;39.22;16.20;;;;;;;4.74;100.00;101459.69;6180657;23;20016;-70
2024/03/13 07:55:06;;;;;;;34.72;17.13;;;;;;;4.91;100.00;101462.63;6155077;23;20775;-70
2024/03/13 07:57:31;;;;;;;39.10;19.20;;;;;;;4.97;100.00;101456.47;6179552;23;20012;-69
2024/03/13 07:59:57;;;;;;;38.13;18.38;;;;;;;5.11;100.00;101452.69;6155159;23;20021;-70
2024/03/13 08:02:23;;;;;;;40.70;18.77;;;;;;;5.20;100.00;101446.06;6206116;23;20099;-69
2024/03/13 08:04:49;;;;;;;40.03;18.73;;;;;;;5.31;100.00;101441.09;6179509;23;20008;-71
2024/03/13 08:07:14;;;;;;;40.33;18.45;;;;;;;5.36;100.00;101438.59;6129977;23;20036;-70
2024/03/13 08:09:40;;;;;;;37.22;16.55;;;;;;;5.50;100.00;101429.47;6180502;23;20079;-70
2024/03/13 08:12:06;;;;;;;40.28;18.58;;;;;;;5.61;100.00;101441.22;6205100;23;20544;-69
2024/03/13 08:14:34;;;;;;;36.85;17.92;;;;;;;5.67;100.00;101427.84;6180274;23;20008;-70
2024/03/13 08:16:59;;;;;;;39.03;17.98;;;;;;;5.74;100.00;101414.50;6205704;23;20036;-71
2024/03/13 08:19:25;;;;;;;35.72;15.35;;;;;;;5.80;100.00;101402.19;6206831;23;20008;-70
2024/03/13 08:21:50;;;;;;;39.38;18.40;;;;;;;5.92;100.00;101405.75;6154089;23;20023;-71
2024/03/13 08:24:18;;;;;;;37.67;18.83;;;;;;;6.04;100.00;101401.31;6179845;23;20603;-69
2024/03/13 08:26:44;;;;;;;41.72;17.58;;;;;;;6.12;100.00;101394.88;6154142;23;20015;-70
2024/03/13 08:29:15;;;;;;;34.42;16.85;;;;;;;6.21;100.00;101399.66;6154793;23;20023;-70
2024/03/13 08:31:47;;;;;;;39.15;18.15;;;;;;;6.28;100.00;101399.56;6154077;23;20510;-71
2024/03/13 08:34:17;;;;;;;33.65;15.95;;;;;;;6.40;100.00;101400.44;6154547;23;20370;-71
2024/03/13 08:36:43;;;;;;;38.40;17.80;;;;;;;6.54;100.00;101403.72;6128515;23;20776;-70
2024/03/13 08:39:09;;;;;;;35.35;16.90;;;;;;;6.63;100.00;101402.34;6204239;23;20108;-70
2024/03/13 08:41:35;;;;;;;36.38;16.45;;;;;;;6.72;100.00;101411.66;6178266;23;20012;-70
2024/03/13 08:44:03;;;;;;;34.45;16.15;;;;;;;6.83;100.00;101412.72;6154245;23;20021;-69
2024/03/13 08:46:29;;;;;;;32.85;16.10;;;;;;;6.88;100.00;101409.38;6179321;23;20319;-69
2024/03/13 08:48:58;;;;;;;36.22;17.13;;;;;;;6.90;100.00;101401.97;6155156;23;20036;-70
2024/03/13 08:51:26;;;;;;;33.47;17.33;;;;;;;6.96;100.00;101411.69;6180000;23;20027;-70
2024/03/13 08:53:51;;;;;;;34.20;16.30;;;;;;;7.09;100.00;101412.31;6206047;23;20055;-71
2024/03/13 08:56:17;;;;;;;31.55;16.23;;;;;;;7.19;100.00;101411.75;6180408;23;20021;-70
2024/03/13 08:58:44;;;;;;;31.88;15.57;;;;;;;7.22;100.00;101413.94;6205412;23;20012;-71
2024/03/13 09:01:11;;;;;;;32.30;15.10;;;;;;;7.33;100.00;101415.00;6180168;23;20009;-69
2024/03/13 09:03:36;;;;;;;29.42;14.50;;;;;;;7.44;100.00;101421.34;6179306;23;20038;-70
2024/03/13 09:06:07;;;;;;;27.30;14.63;;;;;;;7.53;100.00;101422.66;6130351;23;20012;-70
2024/03/13 09:08:33;;;;;;;29.55;15.50;;;;;;;7.64;100.00;101427.94;6178355;23;20107;-71
2024/03/13 09:10:59;;;;;;;30.35;14.20;;;;;;;7.74;100.00;101422.03;6205745;23;20016;-70
2024/03/13 09:13:27;;;;;;;26.92;13.55;;;;;;;7.83;100.00;101436.63;6179095;23;20014;-71
2024/03/13 09:15:52;;;;;;;28.55;13.77;;;;;;;7.90;100.00;101439.97;6179819;23;20012;-71
2024/03/13 09:18:18;;;;;;;26.92;14.27;;;;;;;7.99;100.00;101434.28;6205868;23;20028;-70
2024/03/13 09:20:44;;;;;;;28.05;13.27;;;;;;;7.93;100.00;101434.19;6207386;23;20147;-70
2024/03/13 09:23:10;;;;;;;24.80;13.30;;;;;;;7.82;100.00;101432.34;6154020;23;20537;-71
2024/03/13 09:25:36;;;;;;;23.83;12.65;;;;;;;7.84;100.00;101440.91;6180003;23;20008;-70
2024/03/13 09:28:02;;;;;;;24.63;13.82;;;;;;;7.92;100.00;101434.41;6176933;23;20070;-70
2024/03/13 09:30:28;;;;;;;25.83;13.43;;;;;;;7.98;100.00;101435.31;6179882;23;20017;-70
2024/03/13 09:32:54;;;;;;;23.02;12.30;;;;;;;8.03;100.00;101435.44;6153109;23;20038;-70
2024/03/13 09:35:19;;;;;;;25.98;14.38;;;;;;;8.00;100.00;101427.91;6179643;23;20096;-70
2024/03/13 09:37:46;;;;;;;25.27;13.65;;;;;;;8.08;100.00;101432.88;6177137;23;20016;-72
2024/03/13 09:40:16;;;;;;;24.00;12.82;;;;;;;8.17;100.00;101436.78;6204810;23;20074;-70
2024/03/13 09:42:50;;;;;;;25.98;14.00;;;;;;;8.29;100.00;101436.78;6178666;23;20008;-70
2024/03/13 09:45:22;;;;;;;24.92;13.15;;;;;;;8.30;100.00;101441.84;6179534;23;20400;-70
2024/03/13 09:47:50;;;;;;;21.00;11.68;;;;;;;8.43;100.00;101441.63;6178671;23;20013;-70
2024/03/13 09:50:17;;;;;;;24.92;13.07;;;;;;;8.43;100.00;101438.94;6154961;23;20095;-70
2024/03/13 09:52:46;;;;;;;23.23;13.05;;;;;;;8.49;100.00;101431.84;6179120;23;20012;-71
2024/03/13 09:55:15;;;;;;;22.80;12.65;;;;;;;8.50;100.00;101438.81;6153536;23;20015;-71
2024/03/13 09:57:41;;;;;;;22.73;11.55;;;;;;;8.63;100.00;101437.72;6177851;23;20016;-70
2024/03/13 10:00:17;;;;;;;21.80;12.70;;;;;;;8.62;100.00;101439.56;6154597;23;20853;-70
2024/03/13 10:02:49;;;;;;;22.33;12.13;;;;;;;8.71;100.00;101435.44;6179334;23;20004;-71
2024/03/13 10:05:19;;;;;;;21.58;11.38;;;;;;;8.75;100.00;101430.44;6206287;23;20016;-70
2024/03/13 10:07:50;;;;;;;19.75;10.70;;;;;;;8.77;100.00;101436.34;6179004;23;20043;-71
2024/03/13 10:10:26;;;;;;;24.17;12.40;;;;;;;8.84;100.00;101429.00;6130428;23;20050;-70
2024/03/13 10:12:56;;;;;;;22.52;12.07;;;;;;;8.85;100.00;101435.16;6178398;23;20020;-69
2024/03/13 10:15:22;;;;;;;20.38;11.55;;;;;;;8.94;100.00;101428.34;6179585;23;20018;-70
2024/03/13 10:18:05;;;;;;;22.38;12.15;;;;;;;9.04;100.00;101420.53;6205044;23;20066;-71
2024/03/13 10:20:43;;;;;;;22.00;11.55;;;;;;;9.17;100.00;101420.19;6154437;23;20051;-70
2024/03/13 10:23:11;;;;;;;23.27;12.85;;;;;;;9.18;100.00;101418.34;6176745;23;20020;-70
2024/03/13 10:25:39;;;;;;;19.70;10.77;;;;;;;9.23;100.00;101421.91;6179377;23;20023;-70
2024/03/13 10:28:06;;;;;;;20.23;12.48;;;;;;;9.23;100.00;101415.75;6152548;23;20455;-70
2024/03/13 10:30:31;;;;;;;;;;;;;;;9.24;100.00;101412.81;6206759;23;20016;-70
2024/03/13 10:32:59;;;;;;;19.77;11.13;;;;;;;9.27;100.00;101403.50;6153619;23;19911;-71
2024/03/13 10:35:26;;;;;;;15.57;9.32;;;;;;;9.32;100.00;101408.94;6206575;23;20013;-71
2024/03/13 10:37:53;;;;;;;15.77;8.88;;;;;;;9.42;100.00;101429.66;6153834;23;20013;-71
2024/03/13 10:40:19;;;;;;;17.40;9.85;;;;;;;9.45;100.00;101429.16;6154475;23;20048;-71
2024/03/13 10:42:47;;;;;;;16.90;9.48;;;;;;;9.45;100.00;101424.63;6178913;23;20020;-70
2024/03/13 10:45:14;;;;;;;15.20;8.90;;;;;;;9.53;100.00;101428.75;6153445;23;20012;-71
2024/03/13 10:47:42;;;;;;;14.05;8.50;;;;;;;9.56;100.00;101425.59;6152998;23;20016;-70
2024/03/13 10:50:12;;;;;;;15.60;9.77;;;;;;;9.68;100.00;101420.13;6178715;23;20016;-69
2024/03/13 10:52:39;;;;;;;16.20;8.90;;;;;;;9.78;100.00;101421.06;6153331;23;20075;-69
2024/03/13 10:55:07;;;;;;;16.27;9.93;;;;;;;9.86;100.00;101414.47;6178883;23;20024;-70
2024/03/13 10:57:36;;;;;;;17.00;9.18;;;;;;;9.87;100.00;101412.63;6153812;23;20366;-71
2024/03/13 11:00:10;;;;;;;15.38;9.30;;;;;;;9.88;100.00;101408.88;6178930;23;20035;-70
2024/03/13 11:02:39;;;;;;;15.63;9.63;;;;;;;9.78;100.00;101407.72;6179164;23;20015;-70
2024/03/13 11:05:11;;;;;;;15.10;8.93;;;;;;;9.77;100.00;101422.13;6177441;23;20016;-70
2024/03/13 11:07:38;;;;;;;14.88;8.85;;;;;;;9.79;100.00;101421.88;6177962;23;20554;-70
2024/03/13 11:10:13;;;;;;;16.67;9.70;;;;;;;9.79;100.00;101412.00;6178252;23;20009;-70
2024/03/13 11:12:50;;;;;;;16.25;9.18;;;;;;;9.79;100.00;101422.69;6204088;23;20044;-70
2024/03/13 11:15:37;;;;;;;15.23;8.80;;;;;;;9.84;100.00;101404.03;6153443;23;20378;-70
2024/03/13 11:18:04;;;;;;;17.20;9.85;;;;;;;9.89;100.00;101414.00;6153497;23;20111;-70
2024/03/13 11:20:55;;;;;;;17.33;9.23;;;;;;;9.94;100.00;101395.31;6179722;23;20056;-71
2024/03/13 11:23:29;;;;;;;17.23;9.70;;;;;;;9.98;100.00;101391.09;6177885;23;20048;-72
2024/03/13 11:26:03;;;;;;;15.07;8.77;;;;;;;9.91;100.00;101395.84;6179696;23;20016;-72
2024/03/13 11:28:32;;;;;;;14.10;9.40;;;;;;;9.92;100.00;101397.44;6153799;23;20048;-71
2024/03/13 11:30:58;;;;;;;15.90;9.57;;;;;;;9.99;100.00;101392.72;6177601;23;20020;-71
2024/03/13 11:33:25;;;;;;;15.48;9.55;;;;;;;10.03;100.00;101395.72;6152766;23;20016;-72